RYR5ZL LIBD-LIPZ
Flight info
| Callsign | RYR5ZL |
|---|---|
| Flight time | N/A |
| Altitude | 38000 |
| Route | PISIP DCT VIE DCT VAPUP DCT IPKIS DCT PUL DCT LABIN/N0350F180 Z122 BASOG |
| Aircraft | B738/M-SDE2E3FGHIRWXY/LB1 |
Departure
| Time | 2026-04-30 12:37 |
|---|---|
| Airport | Bari Karol Wojtyła International Airport (LIBD) |
Arrival
| Time | N/A |
|---|---|
| Airport | Venice Marco Polo Airport (LIPZ) |
| Time | Latitude | Longitude | Altitude | Speed | Heading |
|---|---|---|---|---|---|
| 2026-04-30 12:20 | 41.13731 | 16.76920 | 158 ft | 0 kts | 197° |
| 2026-04-30 12:27 | 41.13733 | 16.76921 | 158 ft | 3 kts | 197° |
| 2026-04-30 12:27 | 41.13758 | 16.76933 | 158 ft | 4 kts | 207° |
| 2026-04-30 12:27 | 41.13780 | 16.76953 | 158 ft | 4 kts | 224° |
| 2026-04-30 12:28 | 41.13795 | 16.76978 | 158 ft | 2 kts | 249° |
| 2026-04-30 12:28 | 41.13796 | 16.76980 | 158 ft | 1 kts | 249° |
| 2026-04-30 12:31 | 41.13796 | 16.76979 | 158 ft | 0 kts | 249° |
| 2026-04-30 12:31 | 41.13793 | 16.76968 | 158 ft | 3 kts | 249° |
| 2026-04-30 12:31 | 41.13782 | 16.76930 | 158 ft | 6 kts | 249° |
| 2026-04-30 12:32 | 41.13768 | 16.76871 | 158 ft | 7 kts | 261° |
| 2026-04-30 12:32 | 41.13780 | 16.76810 | 157 ft | 7 kts | 302° |
| 2026-04-30 12:32 | 41.13817 | 16.76772 | 157 ft | 7 kts | 334° |
| 2026-04-30 12:32 | 41.13859 | 16.76778 | 157 ft | 7 kts | 39° |
| 2026-04-30 12:33 | 41.13883 | 16.76831 | 157 ft | 7 kts | 68° |
| 2026-04-30 12:33 | 41.13901 | 16.76897 | 157 ft | 9 kts | 69° |
| 2026-04-30 12:33 | 41.13926 | 16.76983 | 157 ft | 11 kts | 69° |
| 2026-04-30 12:33 | 41.13956 | 16.77090 | 157 ft | 13 kts | 70° |
| 2026-04-30 12:34 | 41.13989 | 16.77211 | 157 ft | 14 kts | 67° |
| 2026-04-30 12:34 | 41.14021 | 16.77322 | 157 ft | 12 kts | 68° |
| 2026-04-30 12:34 | 41.14065 | 16.77387 | 157 ft | 9 kts | 24° |
| 2026-04-30 12:34 | 41.14121 | 16.77410 | 155 ft | 3 kts | 15° |
| 2026-04-30 12:35 | 41.14134 | 16.77415 | 154 ft | 0 kts | 16° |
| 2026-04-30 12:35 | 41.14138 | 16.77417 | 154 ft | 3 kts | 15° |
| 2026-04-30 12:35 | 41.14187 | 16.77411 | 149 ft | 11 kts | 334° |
| 2026-04-30 12:35 | 41.14210 | 16.77332 | 147 ft | 9 kts | 262° |
| 2026-04-30 12:36 | 41.14190 | 16.77255 | 148 ft | 9 kts | 249° |
| 2026-04-30 12:36 | 41.14098 | 16.76926 | 149 ft | 74 kts | 250° |
| 2026-04-30 12:36 | 41.13836 | 16.76006 | 151 ft | 137 kts | 249° |
| 2026-04-30 12:36 | 41.13439 | 16.74647 | 436 ft | 167 kts | 251° |
| 2026-04-30 12:37 | 41.13052 | 16.73231 | 1409 ft | 170 kts | 257° |
| 2026-04-30 12:37 | 41.12642 | 16.71735 | 2339 ft | 175 kts | 256° |
| 2026-04-30 12:37 | 41.12210 | 16.70211 | 3182 ft | 177 kts | 256° |
| 2026-04-30 12:37 | 41.11762 | 16.68639 | 3761 ft | 196 kts | 256° |
| 2026-04-30 12:38 | 41.11246 | 16.66821 | 3997 ft | 219 kts | 254° |
| 2026-04-30 12:38 | 41.10704 | 16.64921 | 4594 ft | 222 kts | 255° |
| 2026-04-30 12:38 | 41.10164 | 16.62987 | 5385 ft | 224 kts | 255° |
| 2026-04-30 12:38 | 41.09604 | 16.61036 | 6196 ft | 227 kts | 254° |
| 2026-04-30 12:39 | 41.09084 | 16.59068 | 6925 ft | 227 kts | 264° |
| 2026-04-30 12:39 | 41.09265 | 16.56960 | 7134 ft | 242 kts | 299° |
| 2026-04-30 12:39 | 41.10406 | 16.55264 | 7536 ft | 254 kts | 326° |
| 2026-04-30 12:39 | 41.11951 | 16.54116 | 8266 ft | 256 kts | 334° |
| 2026-04-30 12:40 | 41.13591 | 16.53120 | 8982 ft | 261 kts | 335° |
| 2026-04-30 12:40 | 41.15273 | 16.52136 | 9699 ft | 267 kts | 335° |
| 2026-04-30 12:40 | 41.16988 | 16.51131 | 10347 ft | 273 kts | 334° |
| 2026-04-30 12:40 | 41.18791 | 16.50058 | 10575 ft | 296 kts | 334° |
| 2026-04-30 12:41 | 41.20735 | 16.48883 | 10757 ft | 318 kts | 334° |
| 2026-04-30 12:41 | 41.22803 | 16.47623 | 11080 ft | 333 kts | 334° |
| 2026-04-30 12:41 | 41.24933 | 16.46321 | 11696 ft | 338 kts | 333° |
| 2026-04-30 12:41 | 41.27075 | 16.45009 | 12454 ft | 340 kts | 333° |
| 2026-04-30 12:42 | 41.29231 | 16.43683 | 13227 ft | 342 kts | 333° |
| 2026-04-30 12:42 | 41.31400 | 16.42346 | 13977 ft | 346 kts | 333° |
| 2026-04-30 12:42 | 41.33595 | 16.40989 | 14660 ft | 349 kts | 333° |
| 2026-04-30 12:42 | 41.35771 | 16.39643 | 15385 ft | 351 kts | 332° |
| 2026-04-30 12:43 | 41.37993 | 16.38265 | 16108 ft | 353 kts | 332° |
| 2026-04-30 12:43 | 41.40231 | 16.36877 | 16841 ft | 356 kts | 331° |
| 2026-04-30 12:43 | 41.42483 | 16.35479 | 17534 ft | 359 kts | 331° |
| 2026-04-30 12:43 | 41.44740 | 16.34076 | 18210 ft | 362 kts | 331° |
| 2026-04-30 12:44 | 41.47047 | 16.32640 | 18833 ft | 365 kts | 330° |
| 2026-04-30 12:44 | 41.49359 | 16.31201 | 19421 ft | 368 kts | 330° |
| 2026-04-30 12:44 | 41.51681 | 16.29755 | 20006 ft | 371 kts | 330° |
| 2026-04-30 12:44 | 41.54036 | 16.28287 | 20586 ft | 374 kts | 330° |
| 2026-04-30 12:45 | 41.56399 | 16.26812 | 21157 ft | 376 kts | 329° |
| 2026-04-30 12:45 | 41.58776 | 16.25328 | 21709 ft | 379 kts | 329° |
| 2026-04-30 12:45 | 41.61175 | 16.23829 | 22268 ft | 382 kts | 329° |
| 2026-04-30 12:45 | 41.63594 | 16.22316 | 22814 ft | 385 kts | 329° |
| 2026-04-30 12:46 | 41.66028 | 16.20792 | 23353 ft | 387 kts | 329° |
| 2026-04-30 12:46 | 41.68477 | 16.19258 | 23844 ft | 390 kts | 328° |
| 2026-04-30 12:46 | 41.70944 | 16.17712 | 24302 ft | 392 kts | 328° |
| 2026-04-30 12:46 | 41.73416 | 16.16161 | 24768 ft | 393 kts | 328° |
| 2026-04-30 12:47 | 41.75900 | 16.14602 | 25220 ft | 394 kts | 328° |
| 2026-04-30 12:47 | 41.78390 | 16.13038 | 25672 ft | 396 kts | 328° |
| 2026-04-30 12:47 | 41.80887 | 16.11466 | 26073 ft | 398 kts | 328° |
| 2026-04-30 12:47 | 41.83396 | 16.09886 | 26480 ft | 400 kts | 328° |
| 2026-04-30 12:48 | 41.85891 | 16.08314 | 26870 ft | 402 kts | 328° |
| 2026-04-30 12:48 | 41.88429 | 16.06713 | 27271 ft | 403 kts | 328° |
| 2026-04-30 12:48 | 41.90965 | 16.05112 | 27662 ft | 405 kts | 328° |
| 2026-04-30 12:48 | 41.93491 | 16.03414 | 28013 ft | 405 kts | 326° |
| 2026-04-30 12:49 | 41.95990 | 16.01625 | 28381 ft | 406 kts | 325° |
| 2026-04-30 12:49 | 41.98471 | 15.99806 | 28761 ft | 407 kts | 325° |
| 2026-04-30 12:49 | 42.00963 | 15.97971 | 29122 ft | 409 kts | 325° |
| 2026-04-30 12:49 | 42.03467 | 15.96129 | 29475 ft | 411 kts | 325° |
| 2026-04-30 12:50 | 42.05978 | 15.94288 | 29827 ft | 412 kts | 325° |
| 2026-04-30 12:50 | 42.08496 | 15.92450 | 30291 ft | 410 kts | 325° |
| 2026-04-30 12:50 | 42.10999 | 15.90628 | 30775 ft | 407 kts | 325° |
| 2026-04-30 12:50 | 42.13486 | 15.88819 | 31180 ft | 405 kts | 325° |
| 2026-04-30 12:51 | 42.15968 | 15.87011 | 31524 ft | 405 kts | 325° |
| 2026-04-30 12:51 | 42.18447 | 15.85203 | 31873 ft | 405 kts | 325° |
| 2026-04-30 12:51 | 42.20919 | 15.83400 | 32279 ft | 403 kts | 325° |
| 2026-04-30 12:51 | 42.23344 | 15.81630 | 32685 ft | 401 kts | 325° |